Oakland, MD

2:19 AM EDT on May 27, 2017 (GMT -0400)
Oakland

Weather History for K2G4 - November, 2012

Change the Weather History Date:

Monday, November 19, 2012

  Actual Average (KMGW) Record (KMGW)
Temperature  
Mean Temperature 38 °F -  
Max Temperature 44 °F 52 °F 77 °F (1985)
Min Temperature 32 °F 35 °F 16 °F (2014)
Degree Days  
Heating Degree Days 27    
Moisture  
Dew Point 33 °F    
Average Humidity 87    
Maximum Humidity 100    
Minimum Humidity 61    
Precipitation  
Precipitation 0.00 in - - ()
Sea Level Pressure  
Sea Level Pressure 30.29 in    
Wind  
Wind Speed 12 mph (SE)    
Max Wind Speed 17 mph    
Max Gust Speed 22 mph    
Visibility 9 miles    
Events      
Averages and records for this station are not official NWS values.
T = Trace of Precipitation, MM = Missing Value Source: NWS Daily Summary

Daily Weather History Graph

Daily Weather History Graph

Search for Another Location

Airport or City:

Trip Planner

Search our weather history database for the weather conditions in past years. The results will help you decide how hot, cold, wet, or windy it might be!

Date:

Astronomy

Nov. 19, 2012 Rise Set
Actual Time 7:06 AM EST 4:58 PM EST
Civil Twilight 6:37 AM EST 5:27 PM EST
Nautical Twilight 6:04 AM EST 6:00 PM EST
Astronomical Twilight 5:32 AM EST 6:32 PM EST
Moon 12:08 PM EST (11/19) 11:23 PM EST (11/19)
Length of Visible Light 10h 50m
Length of Day
9h 52m
Waxing Crescent, 40% of the Moon is Illuminated
Nov 19
Waxing Crescent
Nov 20
First Quarter
Nov 28
Full
Dec 6
Last Quarter
Dec 13
New

Hourly Weather History & Observations

Time (EST) Temp. Windchill Dew Point Humidity Pressure Visibility Wind Dir Wind Speed Gust Speed Precip Events Conditions
12:15 AM 32.0 °F 21.6 °F 32.0 °F 100% 30.41 in 7.0 mi SE 15.0 mph - N/A   Clear
12:35 AM 32.0 °F 21.6 °F 32.0 °F 100% 30.40 in 7.0 mi SE 15.0 mph - N/A   Clear
12:55 AM 32.0 °F 22.1 °F 32.0 °F 100% 30.40 in 5.0 mi SE 13.8 mph - N/A   Clear
1:15 AM 32.0 °F 21.6 °F 32.0 °F 100% 30.40 in 5.0 mi SE 15.0 mph - N/A   Clear
2:00 AM 32.0 °F 21.2 °F 32.0 °F 100% 30.38 in 5.0 mi SE 16.1 mph 21.9 mph N/A   Overcast
2:20 AM 32.0 °F 20.8 °F 32.0 °F 100% 30.38 in 5.0 mi SE 17.3 mph - N/A   Overcast
3:05 AM 32.0 °F 22.1 °F 32.0 °F 100% 30.38 in 5.0 mi SE 13.8 mph - N/A   Overcast
3:25 AM 32.0 °F 21.2 °F 32.0 °F 100% 30.38 in 7.0 mi SE 16.1 mph - N/A   Overcast
3:45 AM 33.8 °F 23.5 °F 33.8 °F 100% 30.38 in 7.0 mi SE 16.1 mph - N/A   Overcast
4:05 AM 32.0 °F 21.6 °F 32.0 °F 100% 30.38 in 7.0 mi SE 15.0 mph - N/A   Overcast
5:30 AM 32.0 °F 21.6 °F 32.0 °F 100% 30.36 in 7.0 mi SE 15.0 mph 19.6 mph N/A   Scattered Clouds
5:55 AM 32.0 °F 21.6 °F 32.0 °F 100% 30.36 in 7.0 mi SE 15.0 mph 20.7 mph N/A   Mostly Cloudy
6:15 AM 32.0 °F 21.2 °F 32.0 °F 100% 30.35 in 7.0 mi SE 16.1 mph - N/A   Overcast
6:35 AM 32.0 °F 21.6 °F 32.0 °F 100% 30.36 in 7.0 mi SE 15.0 mph - N/A   Mostly Cloudy
6:55 AM 32.0 °F 23.0 °F 32.0 °F 100% 30.36 in 7.0 mi SE 11.5 mph - N/A   Mostly Cloudy
7:20 AM 32.0 °F 23.0 °F 32.0 °F 100% 30.36 in 7.0 mi SE 11.5 mph - N/A   Overcast
8:00 AM 32.0 °F 23.6 °F 32.0 °F 100% 30.36 in 5.0 mi SE 10.4 mph - N/A   Overcast
8:20 AM 32.0 °F 24.2 °F 32.0 °F 100% 30.36 in 5.0 mi SE 9.2 mph - N/A   Overcast
8:45 AM 32.0 °F 23.6 °F 32.0 °F 100% 30.35 in 5.0 mi SE 10.4 mph - N/A   Overcast
9:05 AM 33.8 °F 26.4 °F 33.8 °F 100% 30.36 in 5.0 mi ESE 9.2 mph - N/A   Mostly Cloudy
9:25 AM 35.6 °F 28.6 °F 35.6 °F 100% 30.35 in 7.0 mi SE 9.2 mph - N/A   Scattered Clouds
9:45 AM 37.4 °F 30.3 °F 35.6 °F 93% 30.36 in 10.0 mi SE 10.4 mph - N/A   Scattered Clouds
10:10 AM 37.4 °F 29.3 °F 35.6 °F 93% 30.35 in 10.0 mi SE 12.7 mph - N/A   Clear
10:50 AM 37.4 °F 30.3 °F 35.6 °F 93% 30.35 in 10.0 mi ESE 10.4 mph - N/A   Clear
11:10 AM 39.2 °F 33.6 °F 35.6 °F 87% 30.33 in 10.0 mi ESE 8.1 mph - N/A   Clear
11:55 AM 41.0 °F 34.3 °F 33.8 °F 76% 30.31 in 10.0 mi SE 11.5 mph - N/A   Clear
12:15 PM 42.8 °F 36.6 °F 33.8 °F 70% 30.30 in 10.0 mi SE 11.5 mph 16.1 mph N/A   Clear
12:35 PM 42.8 °F 38.0 °F 33.8 °F 70% 30.29 in 10.0 mi SE 8.1 mph - N/A   Clear
1:00 PM 44.6 °F 40.2 °F 32.0 °F 61% 30.29 in 10.0 mi SE 8.1 mph - N/A   Clear
1:20 PM 44.6 °F 41.4 °F 32.0 °F 61% 30.28 in 10.0 mi SSE 5.8 mph - N/A   Clear
1:40 PM 44.6 °F 42.2 °F 32.0 °F 61% 30.27 in 10.0 mi SE 4.6 mph - N/A   Clear
2:00 PM 44.6 °F 40.7 °F 32.0 °F 61% 30.26 in 10.0 mi ESE 6.9 mph - N/A   Clear
2:25 PM 44.6 °F - 32.0 °F 61% 30.27 in 10.0 mi Calm Calm - N/A   Clear
2:45 PM 44.6 °F 41.4 °F 32.0 °F 61% 30.26 in 10.0 mi ESE 5.8 mph - N/A   Clear
3:05 PM 42.8 °F 38.6 °F 32.0 °F 66% 30.25 in 10.0 mi ESE 6.9 mph - N/A   Clear
3:25 PM 42.8 °F 38.0 °F 32.0 °F 66% 30.25 in 10.0 mi ESE 8.1 mph - N/A   Clear
3:50 PM 41.0 °F 37.1 °F 32.0 °F 70% 30.25 in 10.0 mi ESE 5.8 mph - N/A   Clear
4:10 PM 41.0 °F 36.4 °F 32.0 °F 70% 30.25 in 10.0 mi ESE 6.9 mph - N/A   Clear
4:30 PM 41.0 °F 39.0 °F 32.0 °F 70% 30.26 in 10.0 mi ESE 3.5 mph - N/A   Clear
4:50 PM 37.4 °F 32.8 °F 32.0 °F 81% 30.25 in 10.0 mi ESE 5.8 mph - N/A   Clear
5:15 PM 37.4 °F 33.8 °F 32.0 °F 81% 30.25 in 10.0 mi ESE 4.6 mph - N/A   Clear
5:35 PM 35.6 °F 29.9 °F 32.0 °F 87% 30.25 in 10.0 mi SE 6.9 mph - N/A   Clear
5:55 PM 35.6 °F 28.6 °F 32.0 °F 87% 30.25 in 10.0 mi SE 9.2 mph - N/A   Clear
6:15 PM 35.6 °F 28.6 °F 32.0 °F 87% 30.24 in 10.0 mi SE 9.2 mph - N/A   Clear
6:40 PM 35.6 °F 28.0 °F 32.0 °F 87% 30.24 in 10.0 mi SE 10.4 mph - N/A   Clear
7:00 PM 35.6 °F 28.0 °F 32.0 °F 87% 30.23 in 10.0 mi SE 10.4 mph - N/A   Clear
7:20 PM 35.6 °F 28.6 °F 32.0 °F 87% 30.22 in 10.0 mi SE 9.2 mph - N/A   Clear
7:40 PM 35.6 °F 28.6 °F 32.0 °F 87% 30.22 in 10.0 mi SSE 9.2 mph - N/A   Clear
8:05 PM 35.6 °F 28.6 °F 32.0 °F 87% 30.22 in 10.0 mi SSE 9.2 mph - N/A   Clear
9:05 PM 35.6 °F 28.6 °F 32.0 °F 87% 30.21 in 10.0 mi SE 9.2 mph - N/A   Clear
9:30 PM 35.6 °F 28.0 °F 32.0 °F 87% 30.20 in 10.0 mi SE 10.4 mph - N/A   Clear
9:50 PM 35.6 °F 28.6 °F 33.8 °F 93% 30.20 in 10.0 mi SE 9.2 mph - N/A   Clear
10:10 PM 35.6 °F 28.0 °F 33.8 °F 93% 30.19 in 10.0 mi SE 10.4 mph - N/A   Clear
10:30 PM 35.6 °F 28.6 °F 33.8 °F 93% 30.19 in 10.0 mi SE 9.2 mph - N/A   Clear
10:55 PM 35.6 °F 29.9 °F 33.8 °F 93% 30.18 in 10.0 mi SSE 6.9 mph - N/A   Clear
11:15 PM 35.6 °F 29.2 °F 33.8 °F 93% 30.17 in 10.0 mi SE 8.1 mph - N/A   Clear
11:35 PM 35.6 °F 29.9 °F 33.8 °F 93% 30.17 in 10.0 mi SSE 6.9 mph - N/A   Clear
11:55 PM 35.6 °F 30.7 °F 32.0 °F 87% 30.16 in 10.0 mi SSE 5.8 mph - N/A   Clear